Time;durP1;ratioP1;P1;durP2;ratioP2;P2;SDS_P1;SDS_P2;PMS_P1;PMS_P2;Temp;Humidity;BMP_temperature;BMP_pressure;BME280_temperature;BME280_humidity;BME280_pressure;Samples;Min_cycle;Max_cycle;Signal;HPM_P1;HPM_P2
2023/12/04 00:01:29;;;;;;;3.42;2.65;;;;;;;-6.52;78.60;100917.56;5066388;28;20028;-67
2023/12/04 00:03:54;;;;;;;2.03;1.88;;;;;;;-6.55;78.79;100903.06;5066543;28;20021;-68
2023/12/04 00:06:20;;;;;;;1.02;1.02;;;;;;;-6.49;78.90;100913.63;5066072;28;20418;-68
2023/12/04 00:08:45;;;;;;;2.90;2.72;;;;;;;-6.39;78.72;100906.66;5066337;28;20028;-67
2023/12/04 00:11:10;;;;;;;0.60;0.60;;;;;;;-6.41;78.38;100906.56;5066298;28;20415;-68
2023/12/04 00:13:36;;;;;;;0.88;0.88;;;;;;;-6.41;77.89;100900.63;5066038;28;20079;-68
2023/12/04 00:16:02;;;;;;;1.52;1.42;;;;;;;-6.45;78.12;100907.09;5066198;28;20029;-68
2023/12/04 00:18:27;;;;;;;0.50;0.50;;;;;;;-6.49;78.07;100902.63;5064231;28;20469;-67
2023/12/04 00:20:52;;;;;;;1.70;1.60;;;;;;;-6.42;77.72;100898.88;5066055;28;20053;-68
2023/12/04 00:23:18;;;;;;;1.70;1.60;;;;;;;-6.41;77.54;100905.69;5065874;28;20021;-68
2023/12/04 00:25:43;;;;;;;0.60;0.60;;;;;;;-6.52;77.80;100908.38;5066186;28;20048;-68
2023/12/04 00:28:08;;;;;;;0.63;0.63;;;;;;;-6.55;78.19;100900.53;5066014;28;20017;-68
2023/12/04 00:30:34;;;;;;;1.67;1.58;;;;;;;-6.51;78.06;100897.47;5065937;28;20108;-68
2023/12/04 00:32:59;;;;;;;0.68;0.68;;;;;;;-6.58;78.24;100889.38;5064469;28;20029;-68
2023/12/04 00:35:24;;;;;;;1.38;1.38;;;;;;;-6.53;78.12;100898.16;5048127;28;20051;-68
2023/12/04 00:37:50;;;;;;;0.68;0.68;;;;;;;-6.54;78.48;100889.69;5065771;28;20029;-67
2023/12/04 00:40:15;;;;;;;0.50;0.50;;;;;;;-6.49;78.17;100893.41;5065814;28;20033;-68
2023/12/04 00:42:41;;;;;;;14.07;1.55;;;;;;;-6.43;78.04;100897.09;5047495;28;20025;-69
2023/12/04 00:45:06;;;;;;;1.33;1.23;;;;;;;-6.52;77.96;100880.56;5065620;28;20121;-68
2023/12/04 00:47:32;;;;;;;0.60;0.60;;;;;;;-6.41;77.77;100893.03;5047527;28;20035;-69
2023/12/04 00:49:57;;;;;;;0.60;0.60;;;;;;;-6.40;77.78;100899.84;5065609;28;20025;-69
2023/12/04 00:52:23;;;;;;;1.23;1.13;;;;;;;-6.54;77.85;100878.69;5065376;28;20438;-69
2023/12/04 00:54:48;;;;;;;2.97;1.85;;;;;;;-6.49;77.96;100884.94;5065570;28;20040;-69
2023/12/04 00:57:13;;;;;;;0.60;0.60;;;;;;;-6.47;77.87;100886.78;5065373;28;20025;-69
2023/12/04 00:59:39;;;;;;;0.60;0.60;;;;;;;-6.52;77.85;100883.09;5065372;28;20078;-68
2023/12/04 01:02:07;;;;;;;0.60;0.60;;;;;;;-6.47;78.01;100883.41;5047326;28;20029;-68
2023/12/04 01:04:32;;;;;;;0.68;0.68;;;;;;;-6.44;77.91;100886.16;5047171;28;20511;-68
2023/12/04 01:06:57;;;;;;;0.60;0.60;;;;;;;-6.37;77.83;100892.47;5062957;28;20025;-67
2023/12/04 01:09:24;;;;;;;0.80;0.80;;;;;;;-6.37;77.74;100890.84;5064903;28;20025;-68
2023/12/04 01:11:53;;;;;;;2.20;2.10;;;;;;;-6.36;77.70;100884.13;5065145;28;20013;-68
2023/12/04 01:14:19;;;;;;;1.45;1.35;;;;;;;-6.30;77.72;100894.66;5064846;28;20053;-67
2023/12/04 01:16:45;;;;;;;0.63;0.63;;;;;;;-6.32;77.59;100891.16;5065000;28;20024;-68
2023/12/04 01:19:10;;;;;;;0.70;0.70;;;;;;;-6.25;77.51;100888.28;5047045;28;20075;-68
2023/12/04 01:21:36;;;;;;;0.98;0.98;;;;;;;-6.19;77.68;100884.38;5064679;28;20383;-68
2023/12/04 01:24:01;;;;;;;0.60;0.60;;;;;;;-6.18;77.40;100891.22;5065208;28;20025;-68
2023/12/04 01:26:26;;;;;;;2.30;2.15;;;;;;;-6.18;77.35;100886.16;5064960;28;20051;-68
2023/12/04 01:28:52;;;;;;;0.60;0.60;;;;;;;-6.12;77.14;100894.16;5064761;28;20028;-68
2023/12/04 01:31:17;;;;;;;2.92;1.58;;;;;;;-6.12;77.04;100897.53;5065143;28;20546;-68
2023/12/04 01:33:42;;;;;;;0.60;0.60;;;;;;;-6.14;76.73;100894.06;5064729;28;20062;-67
2023/12/04 01:36:08;;;;;;;0.88;0.88;;;;;;;-6.12;76.72;100884.91;5064866;28;20028;-68
2023/12/04 01:38:33;;;;;;;1.15;1.15;;;;;;;-6.06;76.57;100892.03;5064404;28;20108;-68
2023/12/04 01:40:59;;;;;;;0.60;0.60;;;;;;;-6.24;76.55;100869.81;5064476;28;20025;-68
2023/12/04 01:43:24;;;;;;;0.50;0.50;;;;;;;-6.10;76.44;100895.09;5064605;28;20022;-68
2023/12/04 01:45:51;;;;;;;0.70;0.70;;;;;;;-6.12;76.48;100894.16;5063193;28;20326;-68
2023/12/04 01:48:17;;;;;;;0.60;0.60;;;;;;;-6.17;76.41;100868.56;5064380;28;20066;-67
2023/12/04 01:50:43;;;;;;;0.50;0.50;;;;;;;-6.06;76.19;100883.56;5064714;28;20032;-69
2023/12/04 01:53:08;;;;;;;0.60;0.60;;;;;;;-6.04;75.99;100882.88;5064481;28;20024;-68
2023/12/04 01:55:36;;;;;;;2.28;2.08;;;;;;;-6.08;75.98;100896.09;5046698;28;20021;-68
2023/12/04 01:58:02;;;;;;;0.60;0.60;;;;;;;-6.10;75.87;100873.25;5046325;28;20028;-68
2023/12/04 02:00:29;;;;;;;0.60;0.60;;;;;;;-6.11;76.03;100878.19;5046580;28;20088;-68
2023/12/04 02:02:55;;;;;;;0.60;0.60;;;;;;;-6.10;76.12;100879.94;5064109;28;20021;-68
2023/12/04 02:05:22;;;;;;;0.70;0.70;;;;;;;-6.14;76.38;100872.94;5064630;28;20021;-68
2023/12/04 02:07:48;;;;;;;0.52;0.52;;;;;;;-6.08;76.32;100872.47;5046356;28;20052;-69
2023/12/04 02:10:13;;;;;;;0.70;0.70;;;;;;;-6.05;76.22;100873.56;5064450;28;20033;-66
2023/12/04 02:12:38;;;;;;;0.82;0.82;;;;;;;-6.09;75.80;100858.97;5064285;28;20098;-68
2023/12/04 02:15:04;;;;;;;0.60;0.60;;;;;;;-6.02;75.68;100868.66;5046459;28;20476;-68
2023/12/04 02:17:32;;;;;;;0.60;0.60;;;;;;;-6.04;75.27;100862.66;5065569;28;20028;-68
2023/12/04 02:19:57;;;;;;;0.85;0.85;;;;;;;-6.01;75.62;100867.03;5050205;28;20031;-69
2023/12/04 02:22:23;;;;;;;0.60;0.60;;;;;;;-6.06;75.34;100854.13;5049908;28;20056;-67
2023/12/04 02:24:48;;;;;;;0.70;0.70;;;;;;;-6.09;75.32;100838.75;5050149;28;20120;-67
2023/12/04 02:27:27;;;;;;;0.60;0.60;;;;;;;-5.94;75.34;100853.13;5068150;28;20491;-68
2023/12/04 02:30:00;;;;;;;0.50;0.50;;;;;;;-5.87;75.31;100865.41;5068339;28;20021;-68
2023/12/04 02:32:29;;;;;;;1.00;0.98;;;;;;;-5.83;75.47;100859.75;5068165;28;20044;-68
2023/12/04 02:34:55;;;;;;;1.10;1.10;;;;;;;-5.78;75.43;100852.50;5067911;28;20048;-68
2023/12/04 02:37:22;;;;;;;1.60;1.50;;;;;;;-5.74;75.34;100859.50;5067800;28;20029;-68
2023/12/04 02:39:49;;;;;;;0.60;0.60;;;;;;;-5.74;75.31;100855.31;5068031;28;20036;-68
2023/12/04 02:42:16;;;;;;;1.08;1.08;;;;;;;-5.74;75.01;100851.91;5067843;28;20108;-68
2023/12/04 02:44:42;;;;;;;0.60;0.60;;;;;;;-5.70;74.90;100858.91;5067837;28;20025;-69
2023/12/04 02:47:07;;;;;;;0.60;0.60;;;;;;;-5.69;74.56;100844.63;5049746;28;20082;-69
2023/12/04 02:49:33;;;;;;;0.65;0.65;;;;;;;-5.70;74.01;100847.94;5067556;28;20036;-68
2023/12/04 02:51:58;;;;;;;0.90;0.90;;;;;;;-5.74;73.96;100840.16;5067662;28;20025;-67
2023/12/04 02:54:23;;;;;;;1.08;1.08;;;;;;;-5.82;74.19;100833.72;5067604;28;20040;-68
2023/12/04 02:56:50;;;;;;;0.90;0.90;;;;;;;-5.91;74.34;100828.06;5067291;28;20021;-68
2023/12/04 02:59:15;;;;;;;0.80;0.80;;;;;;;-5.92;74.38;100826.28;5067826;28;20017;-68
2023/12/04 03:01:40;;;;;;;0.98;0.98;;;;;;;-5.93;74.44;100820.38;5067568;28;20017;-68
2023/12/04 03:04:06;;;;;;;0.50;0.50;;;;;;;-5.90;74.56;100832.31;5067497;28;20025;-67
2023/12/04 03:06:31;;;;;;;0.82;0.82;;;;;;;-5.98;74.75;100837.78;5048962;28;20416;-67
2023/12/04 03:08:59;;;;;;;0.60;0.60;;;;;;;-5.92;74.80;100843.97;5067658;28;20031;-68
2023/12/04 03:11:24;;;;;;;0.60;0.60;;;;;;;-6.02;74.85;100829.88;5067495;28;20023;-68
2023/12/04 03:13:49;;;;;;;1.45;1.35;;;;;;;-5.99;75.13;100841.06;5066833;28;20072;-68
2023/12/04 03:16:18;;;;;;;0.57;0.57;;;;;;;-5.96;75.28;100853.03;5066761;28;20464;-69
2023/12/04 03:18:44;;;;;;;0.73;0.73;;;;;;;-5.90;75.15;100850.03;5067309;28;20020;-68
2023/12/04 03:21:10;;;;;;;0.50;0.50;;;;;;;-5.85;75.06;100838.56;5067081;28;20487;-68
2023/12/04 03:23:35;;;;;;;0.50;0.50;;;;;;;-5.83;74.59;100846.25;5066789;28;20059;-69
2023/12/04 03:26:00;;;;;;;0.60;0.60;;;;;;;-5.81;74.63;100844.72;5067085;28;20056;-68
2023/12/04 03:28:26;;;;;;;0.55;0.55;;;;;;;-5.84;74.45;100835.25;5066184;28;20160;-68
2023/12/04 03:30:51;;;;;;;0.60;0.60;;;;;;;-5.86;73.67;100814.03;5066979;28;20085;-68
2023/12/04 03:33:16;;;;;;;0.52;0.52;;;;;;;-5.76;73.52;100838.28;5066938;28;20464;-68
2023/12/04 03:35:42;;;;;;;0.50;0.50;;;;;;;-5.84;73.66;100835.25;5048976;28;20024;-67
2023/12/04 03:38:07;;;;;;;0.77;0.77;;;;;;;-5.77;73.93;100837.41;5066710;28;20033;-68
2023/12/04 03:40:32;;;;;;;0.50;0.50;;;;;;;-5.81;74.05;100832.91;5066749;28;20047;-68
2023/12/04 03:42:58;;;;;;;0.60;0.60;;;;;;;-5.81;73.90;100830.38;5066672;28;20031;-68
2023/12/04 03:45:23;;;;;;;0.80;0.80;;;;;;;-5.79;74.30;100833.03;5066469;28;20029;-68
2023/12/04 03:47:49;;;;;;;0.50;0.50;;;;;;;-5.75;74.67;100827.41;5048477;28;20021;-68
2023/12/04 03:50:15;;;;;;;0.50;0.50;;;;;;;-5.66;74.46;100832.16;5066505;28;20078;-68
2023/12/04 03:52:41;;;;;;;0.60;0.60;;;;;;;-5.63;74.38;100824.78;5066544;28;20024;-68
2023/12/04 03:55:08;;;;;;;0.75;0.75;;;;;;;-5.61;74.32;100825.75;5066527;28;20021;-68
2023/12/04 03:57:33;;;;;;;2.38;1.02;;;;;;;-5.66;74.15;100822.94;5066344;28;20032;-68
2023/12/04 03:59:58;;;;;;;0.60;0.60;;;;;;;-5.55;73.86;100833.72;5066480;28;20067;-68
2023/12/04 04:02:24;;;;;;;0.50;0.50;;;;;;;-5.64;74.08;100823.03;5066276;28;20178;-69
2023/12/04 04:04:49;;;;;;;0.73;0.73;;;;;;;-5.62;73.93;100816.38;5066200;28;20035;-68
2023/12/04 04:07:16;;;;;;;0.60;0.60;;;;;;;-5.62;73.89;100811.34;5066008;28;20017;-68
2023/12/04 04:09:41;;;;;;;0.60;0.60;;;;;;;-5.57;73.40;100809.97;5066267;28;20025;-69
2023/12/04 04:12:07;;;;;;;0.60;0.60;;;;;;;-5.54;73.36;100809.31;5066159;28;20078;-68
2023/12/04 04:14:32;;;;;;;0.60;0.60;;;;;;;-5.47;72.78;100817.41;5066130;28;20025;-68
2023/12/04 04:16:58;;;;;;;0.63;0.63;;;;;;;-5.56;72.86;100796.56;5066175;28;20086;-68
2023/12/04 04:19:23;;;;;;;0.80;0.80;;;;;;;-5.55;73.17;100807.53;5048077;28;20025;-68
2023/12/04 04:21:48;;;;;;;0.77;0.77;;;;;;;-5.60;73.64;100807.25;5065688;28;20055;-68
2023/12/04 04:24:14;;;;;;;1.10;1.05;;;;;;;-5.56;73.47;100805.81;5066170;28;20021;-68
2023/12/04 04:26:39;;;;;;;1.00;1.00;;;;;;;-5.57;73.53;100806.59;5048022;28;20025;-68
2023/12/04 04:29:04;;;;;;;0.50;0.50;;;;;;;-5.56;73.80;100809.22;5065769;28;20075;-69
2023/12/04 04:31:30;;;;;;;1.20;1.17;;;;;;;-5.51;73.94;100814.56;5066097;28;20044;-68
2023/12/04 04:33:55;;;;;;;0.50;0.50;;;;;;;-5.43;74.01;100817.59;5065818;28;20024;-68
2023/12/04 04:36:20;;;;;;;0.50;0.50;;;;;;;-5.44;73.82;100805.69;5065677;28;20056;-67
2023/12/04 04:38:46;;;;;;;0.60;0.60;;;;;;;-5.32;73.88;100808.13;5065368;28;20025;-68
2023/12/04 04:41:17;;;;;;;0.85;0.85;;;;;;;-5.31;73.41;100807.34;5065623;28;20538;-69
2023/12/04 04:43:43;;;;;;;0.60;0.60;;;;;;;-5.35;73.65;100798.66;5065633;28;20025;-68
2023/12/04 04:46:08;;;;;;;0.70;0.70;;;;;;;-5.30;73.23;100807.44;5064489;28;20043;-68
2023/12/04 04:48:34;;;;;;;0.60;0.60;;;;;;;-5.29;73.35;100813.38;5065367;28;20389;-68
2023/12/04 04:50:59;;;;;;;0.60;0.60;;;;;;;-5.35;73.67;100806.25;5065526;28;20103;-69
2023/12/04 04:53:25;;;;;;;0.60;0.60;;;;;;;-5.44;73.83;100793.03;5065363;28;20465;-67
2023/12/04 04:55:50;;;;;;;0.70;0.70;;;;;;;-5.24;73.80;100830.59;5047509;28;20025;-69
2023/12/04 04:58:16;;;;;;;0.60;0.60;;;;;;;-5.24;73.85;100825.53;5065090;28;20029;-69
2023/12/04 05:00:43;;;;;;;2.08;1.98;;;;;;;-5.16;73.88;100832.75;5047272;28;20088;-69
2023/12/04 05:03:08;;;;;;;0.70;0.70;;;;;;;-5.17;73.96;100831.88;5047334;28;20059;-68
2023/12/04 05:05:33;;;;;;;0.80;0.80;;;;;;;-5.14;73.78;100831.19;5065303;28;20037;-67
2023/12/04 05:08:00;;;;;;;0.70;0.70;;;;;;;-5.15;73.59;100825.25;5064880;28;20049;-68
2023/12/04 05:10:25;;;;;;;0.60;0.60;;;;;;;-5.17;73.81;100830.97;5065035;28;20086;-68
2023/12/04 05:12:51;;;;;;;0.60;0.60;;;;;;;-5.16;73.79;100822.63;5064898;28;20041;-68
2023/12/04 05:15:16;;;;;;;2.28;0.80;;;;;;;-5.22;74.01;100816.41;5064933;28;20037;-69
2023/12/04 05:17:41;;;;;;;0.95;0.95;;;;;;;-5.15;74.05;100814.25;5065155;28;20028;-69
2023/12/04 05:20:07;;;;;;;0.60;0.60;;;;;;;-5.14;73.93;100819.41;5046965;28;20023;-68
2023/12/04 05:22:34;;;;;;;1.05;1.05;;;;;;;-5.14;73.92;100821.94;5064648;28;20028;-69
2023/12/04 05:25:00;;;;;;;0.60;0.60;;;;;;;-5.18;74.05;100814.06;5065028;28;20021;-69
2023/12/04 05:27:25;;;;;;;0.60;0.60;;;;;;;-5.15;74.11;100811.72;5046936;28;20078;-68
2023/12/04 05:29:51;;;;;;;0.57;0.57;;;;;;;-5.08;73.98;100824.00;5064781;28;20493;-68
2023/12/04 05:32:17;;;;;;;0.90;0.90;;;;;;;-5.19;73.96;100815.69;5046932;28;20023;-68
2023/12/04 05:34:42;;;;;;;0.57;0.57;;;;;;;-5.16;74.08;100820.94;5065002;28;20021;-68
2023/12/04 05:37:07;;;;;;;0.60;0.60;;;;;;;-5.18;74.14;100814.06;5064172;28;20021;-69
2023/12/04 05:39:33;;;;;;;0.60;0.60;;;;;;;-5.28;74.47;100818.53;5064696;28;20032;-68
2023/12/04 05:41:58;;;;;;;1.98;1.77;;;;;;;-5.43;74.86;100810.84;5064667;28;20033;-69
2023/12/04 05:44:23;;;;;;;1.25;1.15;;;;;;;-5.48;75.42;100815.63;5064895;28;20029;-69
2023/12/04 05:46:49;;;;;;;0.60;0.60;;;;;;;-5.51;75.46;100807.84;5046996;28;20048;-68
2023/12/04 05:49:14;;;;;;;0.60;0.60;;;;;;;-5.55;75.97;100798.31;5064884;28;20036;-68
2023/12/04 05:51:39;;;;;;;0.70;0.70;;;;;;;-5.52;76.35;100808.63;5063117;28;20051;-67
2023/12/04 05:54:05;;;;;;;0.90;0.90;;;;;;;-5.55;76.61;100798.31;5069080;28;20403;-68
2023/12/04 05:56:30;;;;;;;2.08;1.48;;;;;;;-5.54;76.79;100801.72;5068507;28;20025;-68
2023/12/04 05:58:56;;;;;;;0.63;0.63;;;;;;;-5.52;76.81;100808.63;5068323;28;20025;-68
2023/12/04 06:01:21;;;;;;;0.60;0.60;;;;;;;-5.48;76.70;100804.66;5050666;28;20052;-69
2023/12/04 06:03:46;;;;;;;0.52;0.52;;;;;;;-5.39;76.88;100817.00;5068741;28;20059;-68
2023/12/04 06:06:12;;;;;;;2.53;1.42;;;;;;;-5.37;76.74;100813.75;5068749;28;20066;-68
2023/12/04 06:08:37;;;;;;;0.60;0.60;;;;;;;-5.35;76.85;100806.25;5068410;28;20068;-68
2023/12/04 06:11:03;;;;;;;0.70;0.70;;;;;;;-5.24;76.53;100815.41;5068548;28;20036;-68
2023/12/04 06:13:28;;;;;;;0.70;0.70;;;;;;;-5.22;76.45;100802.84;5068152;28;20049;-69
2023/12/04 06:15:53;;;;;;;0.60;0.60;;;;;;;-5.14;76.68;100809.28;5050524;28;20041;-69
2023/12/04 06:18:20;;;;;;;0.50;0.50;;;;;;;-5.23;76.81;100791.88;5068554;28;20028;-69
2023/12/04 06:20:46;;;;;;;0.60;0.60;;;;;;;-5.17;77.24;100795.53;5068686;28;20032;-69
2023/12/04 06:23:11;;;;;;;0.60;0.60;;;;;;;-5.15;77.66;100797.41;5068311;28;20053;-69
2023/12/04 06:25:38;;;;;;;0.60;0.60;;;;;;;-5.15;78.02;100799.94;5068326;28;20025;-69
2023/12/04 06:28:04;;;;;;;0.60;0.60;;;;;;;-5.08;78.15;100801.19;5068280;28;20021;-68
2023/12/04 06:30:30;;;;;;;0.60;0.60;;;;;;;-5.04;78.29;100794.66;5068308;28;20086;-70
2023/12/04 06:32:55;;;;;;;0.60;0.60;;;;;;;-5.06;78.72;100788.63;5068156;28;20021;-70
2023/12/04 06:35:21;;;;;;;5.45;1.40;;;;;;;-5.07;78.68;100789.38;5068157;28;20036;-69
2023/12/04 06:37:48;;;;;;;0.80;0.80;;;;;;;-5.01;78.61;100792.28;5067806;28;20055;-68
2023/12/04 06:40:14;;;;;;;0.60;0.60;;;;;;;-5.01;78.25;100782.16;5068066;28;20025;-68
2023/12/04 06:42:40;;;;;;;0.50;0.50;;;;;;;-4.98;78.55;100787.41;5049797;28;20047;-68
2023/12/04 06:45:06;;;;;;;0.88;0.88;;;;;;;-4.91;78.35;100793.75;5108437;22;20044;-68
2023/12/04 06:47:34;;;;;;;0.57;0.57;;;;;;;-4.94;78.61;100786.84;5066190;28;20120;-68
2023/12/04 06:49:59;;;;;;;0.60;0.60;;;;;;;-5.01;78.37;100772.91;5049785;28;20021;-68
2023/12/04 06:52:24;;;;;;;0.70;0.70;;;;;;;-4.86;78.24;100792.38;5067832;28;20025;-68
2023/12/04 06:54:50;;;;;;;0.77;0.77;;;;;;;-4.84;78.12;100790.81;5068075;28;20090;-69
2023/12/04 06:57:15;;;;;;;1.15;1.15;;;;;;;-4.77;78.26;100792.03;5067592;28;20059;-68
2023/12/04 06:59:44;;;;;;;2.25;1.20;;;;;;;-4.67;78.16;100785.88;5066564;28;20089;-68
2023/12/04 07:02:09;;;;;;;0.90;0.90;;;;;;;-4.65;77.94;100787.69;5067530;28;20056;-68
2023/12/04 07:04:35;;;;;;;0.60;0.60;;;;;;;-4.66;78.05;100777.47;5066384;28;20031;-68
2023/12/04 07:07:04;;;;;;;0.70;0.70;;;;;;;-4.64;77.94;100779.34;5067328;28;20024;-68
2023/12/04 07:09:36;;;;;;;0.70;0.70;;;;;;;-4.54;78.03;100787.47;5049491;28;20043;-68
2023/12/04 07:12:02;;;;;;;;;;;;;;;-4.44;77.94;100783.84;5067805;28;20029;-69
2023/12/04 07:14:28;;;;;;;0.60;0.60;;;;;;;-4.45;77.73;100782.06;5058832;23;19952;-70
2023/12/04 07:16:55;;;;;;;0.65;0.65;;;;;;;-4.46;77.56;100781.22;5066799;28;20025;-71
2023/12/04 07:19:21;;;;;;;1.00;1.00;;;;;;;-4.46;77.37;100787.94;5067107;28;20020;-69
2023/12/04 07:21:48;;;;;;;0.90;0.90;;;;;;;-4.51;77.73;100786.00;5067156;28;20090;-69
2023/12/04 07:24:13;;;;;;;1.38;1.27;;;;;;;-4.55;77.69;100790.81;5067447;28;20032;-70
2023/12/04 07:26:39;;;;;;;1.02;1.02;;;;;;;-4.52;77.89;100794.38;5067170;28;20080;-69
2023/12/04 07:29:07;;;;;;;0.63;0.63;;;;;;;-4.54;77.96;100775.69;5067116;28;20029;-68
2023/12/04 07:31:33;;;;;;;0.70;0.70;;;;;;;-4.54;77.93;100780.75;5049260;28;20017;-70
2023/12/04 07:34:00;;;;;;;0.70;0.70;;;;;;;-4.51;77.90;100783.47;5067030;28;20039;-70
2023/12/04 07:36:25;;;;;;;1.48;0.85;;;;;;;-4.45;77.80;100799.81;5066943;28;20067;-70
2023/12/04 07:38:53;;;;;;;2.65;2.55;;;;;;;-4.55;77.85;100789.13;5048571;28;20025;-69
2023/12/04 07:41:18;;;;;;;0.85;0.85;;;;;;;-4.54;77.86;100790.91;5048620;28;20021;-70
2023/12/04 07:43:44;;;;;;;1.08;0.98;;;;;;;-4.54;78.39;100790.91;5067114;28;20063;-70
2023/12/04 07:46:10;;;;;;;0.90;0.90;;;;;;;-4.52;78.22;100794.38;5066282;28;20056;-69
2023/12/04 07:48:36;;;;;;;0.57;0.57;;;;;;;-4.51;77.83;100791.06;5066420;28;20028;-70
2023/12/04 07:51:01;;;;;;;0.60;0.60;;;;;;;-4.43;77.75;100795.72;5066581;28;20393;-69
2023/12/04 07:53:29;;;;;;;0.50;0.50;;;;;;;-4.52;77.67;100781.69;5066680;28;20021;-69
2023/12/04 07:55:54;;;;;;;0.50;0.50;;;;;;;-4.49;77.55;100788.63;5066779;28;20036;-69
2023/12/04 07:58:20;;;;;;;1.02;0.98;;;;;;;-4.57;77.87;100790.72;5066709;28;20473;-69
2023/12/04 08:00:45;;;;;;;1.02;1.02;;;;;;;-4.55;78.09;100783.19;5048448;28;20023;-69
2023/12/04 08:03:10;;;;;;;0.60;0.60;;;;;;;-4.49;78.04;100784.41;5048542;28;20112;-69
2023/12/04 08:05:36;;;;;;;1.67;1.50;;;;;;;-4.53;78.12;100792.63;5066724;28;20025;-70
2023/12/04 08:08:01;;;;;;;0.70;0.70;;;;;;;-4.48;77.86;100796.31;5065974;28;20088;-69
2023/12/04 08:10:27;;;;;;;0.60;0.60;;;;;;;-4.52;78.04;100783.38;5066280;28;20039;-69
2023/12/04 08:12:52;;;;;;;0.50;0.50;;;;;;;-4.57;77.87;100769.56;5054432;22;20045;-68
2023/12/04 08:15:18;;;;;;;0.88;0.88;;;;;;;-4.49;77.63;100784.41;5071283;23;20048;-66
2023/12/04 08:17:43;;;;;;;1.25;1.25;;;;;;;-4.42;77.48;100782.25;5062127;22;20050;-68
2023/12/04 08:20:13;;;;;;;0.57;0.57;;;;;;;-4.45;77.71;100789.66;5069856;23;20051;-69
2023/12/04 08:22:41;;;;;;;1.08;1.05;;;;;;;-4.53;77.93;100796.81;5067863;28;20452;-68
2023/12/04 08:25:08;;;;;;;0.50;0.50;;;;;;;-4.61;78.16;100796.38;5067732;28;20027;-70
2023/12/04 08:27:33;;;;;;;1.55;1.45;;;;;;;-4.63;78.54;100803.00;5086370;28;20027;-70
2023/12/04 08:29:59;;;;;;;0.60;0.60;;;;;;;-4.60;78.78;100806.59;5085964;28;20032;-70
2023/12/04 08:32:26;;;;;;;0.60;0.60;;;;;;;-4.50;78.68;100797.88;5086086;28;20024;-69
2023/12/04 08:34:52;;;;;;;0.60;0.60;;;;;;;-4.50;78.68;100797.88;5086158;28;20055;-70
2023/12/04 08:37:18;;;;;;;0.60;0.60;;;;;;;-4.49;78.53;100797.09;5067933;28;20020;-70
2023/12/04 08:39:44;;;;;;;0.68;0.68;;;;;;;-4.57;78.38;100777.16;5067704;28;20027;-70
2023/12/04 08:42:09;;;;;;;1.05;1.05;;;;;;;-4.56;78.55;100791.56;5085970;28;20025;-70
2023/12/04 08:44:35;;;;;;;0.60;0.60;;;;;;;-4.61;78.83;100792.19;5084856;28;20432;-70
2023/12/04 08:47:00;;;;;;;0.60;0.60;;;;;;;-4.45;78.86;100804.88;5083953;28;20035;-69
2023/12/04 08:49:26;;;;;;;0.60;0.60;;;;;;;-4.54;78.90;100798.50;5083702;28;20024;-70
2023/12/04 08:51:52;;;;;;;0.73;0.73;;;;;;;-4.61;79.34;100791.28;5085401;28;20016;-70
2023/12/04 08:54:18;;;;;;;1.80;1.52;;;;;;;-4.48;79.06;100805.56;5067492;28;20362;-70
2023/12/04 08:56:44;;;;;;;0.50;0.50;;;;;;;-4.44;79.02;100802.44;5084144;28;20496;-70
2023/12/04 08:59:09;;;;;;;1.05;1.05;;;;;;;-4.48;78.94;100800.50;5067335;28;20043;-69
2023/12/04 09:01:35;;;;;;;0.70;0.70;;;;;;;-4.43;78.86;100800.78;5085502;28;20052;-69
2023/12/04 09:04:00;;;;;;;0.60;0.60;;;;;;;-4.46;79.16;100804.03;5085435;28;20029;-70
2023/12/04 09:06:25;;;;;;;0.52;0.52;;;;;;;-4.45;79.12;100803.22;5085317;28;20051;-70
2023/12/04 09:08:51;;;;;;;0.60;0.60;;;;;;;-4.31;78.75;100804.03;5067354;28;20020;-70
2023/12/04 09:11:16;;;;;;;0.60;0.60;;;;;;;-4.42;78.95;100799.97;5103271;22;20028;-68
2023/12/04 09:13:41;;;;;;;0.80;0.80;;;;;;;-4.41;79.26;100797.53;5107576;23;20036;-70
2023/12/04 09:16:08;;;;;;;0.60;0.60;;;;;;;-4.40;79.63;100800.97;5103957;28;20031;-70
2023/12/04 09:18:34;;;;;;;0.60;0.60;;;;;;;-4.45;79.64;100792.19;5086900;28;20016;-70
2023/12/04 09:21:00;;;;;;;0.55;0.55;;;;;;;-4.46;80.36;100796.41;5087141;28;20024;-70
2023/12/04 09:23:25;;;;;;;0.60;0.60;;;;;;;-4.44;80.37;100797.34;5087218;28;20027;-70
2023/12/04 09:25:50;;;;;;;0.63;0.63;;;;;;;-4.41;80.21;100796.69;5087131;28;20057;-70
2023/12/04 09:28:16;;;;;;;0.60;0.60;;;;;;;-4.30;80.51;100805.81;5104740;28;20083;-69
2023/12/04 09:30:41;;;;;;;0.60;0.60;;;;;;;-4.37;80.84;100793.53;5105426;28;20136;-69
2023/12/04 09:33:07;;;;;;;1.40;1.35;;;;;;;-4.30;80.63;100800.72;5105334;28;20020;-71
2023/12/04 09:35:32;;;;;;;0.50;0.50;;;;;;;-4.12;80.66;100805.13;5105169;28;20024;-70
2023/12/04 09:37:58;;;;;;;0.88;0.88;;;;;;;-4.26;80.71;100795.03;5105103;28;20028;-70
2023/12/04 09:40:23;;;;;;;0.60;0.60;;;;;;;-4.11;80.63;100797.59;5087075;28;20032;-70
2023/12/04 09:42:49;;;;;;;0.60;0.60;;;;;;;-4.04;80.59;100801.34;5105511;28;20083;-70
2023/12/04 09:45:14;;;;;;;0.60;0.60;;;;;;;-4.06;80.76;100794.44;5093077;23;20028;-68
2023/12/04 09:47:42;;;;;;;0.50;0.50;;;;;;;-3.95;80.11;100798.47;5084593;28;20478;-68
2023/12/04 09:50:08;;;;;;;0.50;0.50;;;;;;;-4.18;81.04;100792.06;5105124;28;20024;-68
2023/12/04 09:52:35;;;;;;;0.60;0.60;;;;;;;-4.09;81.59;100794.28;5086752;28;20039;-67
2023/12/04 09:55:01;;;;;;;0.60;0.60;;;;;;;-3.90;80.92;100797.06;5086968;28;20171;-69
2023/12/04 09:57:26;;;;;;;0.50;0.50;;;;;;;-4.03;81.43;100792.09;5105142;28;20028;-67
2023/12/04 09:59:52;;;;;;;0.60;0.60;;;;;;;-3.90;81.08;100801.28;5086750;28;20514;-68
2023/12/04 10:02:19;;;;;;;0.60;0.60;;;;;;;-4.04;81.66;100788.66;5087103;28;20024;-68
2023/12/04 10:04:46;;;;;;;0.50;0.50;;;;;;;-3.80;80.91;100793.38;5105167;28;20028;-68
2023/12/04 10:07:11;;;;;;;0.80;0.80;;;;;;;-3.90;81.53;100788.59;5104818;28;20027;-67
2023/12/04 10:09:37;;;;;;;0.50;0.50;;;;;;;-3.74;80.81;100786.09;5105249;28;20024;-68
2023/12/04 10:12:03;;;;;;;0.60;0.60;;;;;;;-3.80;81.14;100792.53;5105241;28;20073;-68
2023/12/04 10:14:28;;;;;;;0.57;0.57;;;;;;;-3.64;80.78;100789.16;5105222;28;20026;-68
2023/12/04 10:16:53;;;;;;;0.70;0.70;;;;;;;-3.65;81.03;100793.38;5086947;28;20027;-70
2023/12/04 10:19:31;;;;;;;0.75;0.75;;;;;;;-3.77;81.53;100788.47;5104822;28;20024;-67
2023/12/04 10:21:59;;;;;;;0.75;0.75;;;;;;;-3.63;81.49;100790.94;5104822;28;20024;-68
2023/12/04 10:24:27;;;;;;;0.90;0.90;;;;;;;-3.51;81.06;100794.13;5105276;28;20028;-68
2023/12/04 10:26:52;;;;;;;0.50;0.50;;;;;;;-3.59;81.37;100797.91;5104911;28;20036;-67
2023/12/04 10:29:18;;;;;;;0.70;0.70;;;;;;;-3.52;81.14;100789.88;5104900;28;20027;-68
2023/12/04 10:31:43;;;;;;;1.33;1.23;;;;;;;-3.60;81.33;100780.94;5105165;28;20467;-68
2023/12/04 10:34:09;;;;;;;1.45;1.35;;;;;;;-3.46;81.65;100793.50;5104764;28;20103;-68
2023/12/04 10:36:36;;;;;;;0.50;0.50;;;;;;;-3.39;81.20;100788.00;5105084;28;20020;-69
2023/12/04 10:39:04;;;;;;;0.50;0.50;;;;;;;-3.38;81.28;100790.63;5106899;28;20049;-68
2023/12/04 10:41:31;;;;;;;0.60;0.60;;;;;;;-3.54;81.49;100767.69;5108649;28;20026;-68
2023/12/04 10:43:57;;;;;;;0.50;0.50;;;;;;;-3.40;81.82;100792.19;5108614;28;20083;-68
2023/12/04 10:46:24;;;;;;;0.60;0.60;;;;;;;-3.36;81.70;100789.03;5108380;28;20044;-68
2023/12/04 10:48:49;;;;;;;0.60;0.60;;;;;;;-3.34;81.71;100773.91;5108467;28;20068;-68
2023/12/04 10:51:17;;;;;;;0.50;0.50;;;;;;;-3.19;81.59;100778.91;5090233;28;20020;-68
2023/12/04 10:53:44;;;;;;;0.80;0.80;;;;;;;-3.17;81.39;100779.00;5108072;28;20024;-68
2023/12/04 10:56:14;;;;;;;0.50;0.50;;;;;;;-3.20;81.63;100773.75;5108331;28;20024;-69
2023/12/04 10:58:41;;;;;;;0.57;0.57;;;;;;;-3.17;81.61;100779.88;5108310;28;20116;-69
2023/12/04 11:01:09;;;;;;;0.50;0.50;;;;;;;-3.09;81.79;100782.81;5107987;28;20024;-70
2023/12/04 11:03:54;;;;;;;0.50;0.50;;;;;;;-2.97;81.51;100779.19;5108165;28;20028;-69
2023/12/04 11:06:21;;;;;;;0.50;0.50;;;;;;;-2.94;80.98;100779.34;5108271;28;20016;-68
2023/12/04 11:08:48;;;;;;;0.80;0.80;;;;;;;-2.91;80.99;100784.59;5107808;28;20024;-68
2023/12/04 11:11:18;;;;;;;0.50;0.50;;;;;;;-2.97;81.14;100781.72;5108151;28;20019;-68
2023/12/04 11:13:49;;;;;;;0.75;0.75;;;;;;;-2.80;81.20;100791.13;5104717;22;20125;-67
2023/12/04 11:16:54;;;;;;;0.80;0.80;;;;;;;-2.86;80.90;100788.25;5065543;28;20025;-68
2023/12/04 11:19:37;;;;;;;3.92;2.67;;;;;;;-2.78;80.73;100779.34;5066647;28;20044;-68